VLG61RA LEBL-LEAL
Flight info
| Callsign | VLG61RA |
|---|---|
| Flight time | 0h 58m |
| Altitude | 29000 |
| Route | LOTOS DCT TORDU DCT DIKUT DCT SOPET DCT VLC |
| Aircraft | A320/M-V/N |
Departure
| Time | 2026-05-07 14:36 |
|---|---|
| Airport | Josep Tarradellas Barcelona-El Prat Airport (LEBL) |
Arrival
| Time | 2026-05-07 15:35 |
|---|---|
| Airport | Alicante-Elche Miguel Hernández Airport (LEAL) |
| Time | Latitude | Longitude | Altitude | Speed | Heading |
|---|---|---|---|---|---|
| 2026-05-07 14:02 | 41.29013 | 2.08005 | 3 ft | 0 kts | 335° |
| 2026-05-07 14:14 | 41.29012 | 2.08005 | 3 ft | 0 kts | 335° |
| 2026-05-07 14:25 | 41.29002 | 2.08011 | 3 ft | 4 kts | 333° |
| 2026-05-07 14:26 | 41.28979 | 2.08029 | 3 ft | 4 kts | 322° |
| 2026-05-07 14:26 | 41.28960 | 2.08053 | 3 ft | 4 kts | 301° |
| 2026-05-07 14:26 | 41.28954 | 2.08082 | 4 ft | 2 kts | 246° |
| 2026-05-07 14:26 | 41.28954 | 2.08084 | 4 ft | 0 kts | 245° |
| 2026-05-07 14:30 | 41.28953 | 2.08081 | 4 ft | 2 kts | 245° |
| 2026-05-07 14:30 | 41.28936 | 2.08032 | 4 ft | 9 kts | 245° |
| 2026-05-07 14:31 | 41.28912 | 2.07960 | 4 ft | 11 kts | 245° |
| 2026-05-07 14:31 | 41.28876 | 2.07875 | 4 ft | 10 kts | 223° |
| 2026-05-07 14:31 | 41.28788 | 2.07884 | 3 ft | 15 kts | 155° |
| 2026-05-07 14:31 | 41.28713 | 2.07930 | 3 ft | 13 kts | 155° |
| 2026-05-07 14:32 | 41.28646 | 2.07971 | 3 ft | 8 kts | 157° |
| 2026-05-07 14:32 | 41.28589 | 2.07938 | 3 ft | 11 kts | 243° |
| 2026-05-07 14:32 | 41.28556 | 2.07837 | 3 ft | 11 kts | 245° |
| 2026-05-07 14:32 | 41.28519 | 2.07730 | 3 ft | 14 kts | 245° |
| 2026-05-07 14:33 | 41.28474 | 2.07601 | 4 ft | 17 kts | 245° |
| 2026-05-07 14:33 | 41.28439 | 2.07500 | 3 ft | 9 kts | 240° |
| 2026-05-07 14:33 | 41.28382 | 2.07454 | 4 ft | 6 kts | 200° |
| 2026-05-07 14:33 | 41.28361 | 2.07443 | 4 ft | 0 kts | 200° |
| 2026-05-07 14:35 | 41.28320 | 2.07423 | 5 ft | 12 kts | 200° |
| 2026-05-07 14:35 | 41.28256 | 2.07417 | 8 ft | 10 kts | 148° |
| 2026-05-07 14:35 | 41.28253 | 2.07513 | 8 ft | 13 kts | 68° |
| 2026-05-07 14:36 | 41.28308 | 2.07677 | 7 ft | 41 kts | 66° |
| 2026-05-07 14:36 | 41.28533 | 2.08327 | 9 ft | 110 kts | 65° |
| 2026-05-07 14:36 | 41.28924 | 2.09462 | 98 ft | 150 kts | 67° |
| 2026-05-07 14:36 | 41.29290 | 2.10730 | 859 ft | 145 kts | 84° |
| 2026-05-07 14:37 | 41.29233 | 2.12063 | 1496 ft | 153 kts | 100° |
| 2026-05-07 14:37 | 41.28909 | 2.15282 | 2280 ft | 198 kts | 98° |
| 2026-05-07 14:37 | 41.28745 | 2.17157 | 2987 ft | 206 kts | 97° |
| 2026-05-07 14:38 | 41.28584 | 2.19069 | 3847 ft | 209 kts | 96° |
| 2026-05-07 14:38 | 41.28421 | 2.20985 | 4696 ft | 213 kts | 96° |
| 2026-05-07 14:38 | 41.28245 | 2.22967 | 5543 ft | 217 kts | 96° |
| 2026-05-07 14:38 | 41.28062 | 2.24974 | 6404 ft | 220 kts | 96° |
| 2026-05-07 14:39 | 41.27875 | 2.27013 | 7208 ft | 223 kts | 96° |
| 2026-05-07 14:39 | 41.27694 | 2.29080 | 8041 ft | 227 kts | 96° |
| 2026-05-07 14:39 | 41.27412 | 2.31170 | 8835 ft | 232 kts | 109° |
| 2026-05-07 14:39 | 41.26736 | 2.33200 | 9321 ft | 253 kts | 116° |
| 2026-05-07 14:40 | 41.25931 | 2.35389 | 9827 ft | 273 kts | 116° |
| 2026-05-07 14:40 | 41.25056 | 2.37738 | 10270 ft | 294 kts | 116° |
| 2026-05-07 14:40 | 41.24114 | 2.40268 | 10606 ft | 317 kts | 116° |
| 2026-05-07 14:40 | 41.23117 | 2.42990 | 11054 ft | 333 kts | 116° |
| 2026-05-07 14:41 | 41.22100 | 2.45794 | 11726 ft | 339 kts | 116° |
| 2026-05-07 14:41 | 41.21070 | 2.48635 | 12484 ft | 343 kts | 117° |
| 2026-05-07 14:41 | 41.20024 | 2.51511 | 13257 ft | 348 kts | 117° |
| 2026-05-07 14:41 | 41.18975 | 2.54384 | 14005 ft | 352 kts | 117° |
| 2026-05-07 14:42 | 41.17898 | 2.57323 | 14696 ft | 356 kts | 118° |
| 2026-05-07 14:42 | 41.16762 | 2.60265 | 15363 ft | 359 kts | 124° |
| 2026-05-07 14:42 | 41.15200 | 2.62841 | 16009 ft | 359 kts | 139° |
| 2026-05-07 14:42 | 41.13193 | 2.64806 | 16684 ft | 360 kts | 153° |
| 2026-05-07 14:43 | 41.10871 | 2.66030 | 17360 ft | 360 kts | 168° |
| 2026-05-07 14:43 | 41.08384 | 2.66434 | 18058 ft | 361 kts | 182° |
| 2026-05-07 14:43 | 41.05899 | 2.66202 | 18700 ft | 363 kts | 186° |
| 2026-05-07 14:43 | 41.03373 | 2.65921 | 19356 ft | 365 kts | 186° |
| 2026-05-07 14:44 | 41.00823 | 2.65631 | 20030 ft | 367 kts | 188° |
| 2026-05-07 14:44 | 40.98363 | 2.64859 | 20682 ft | 367 kts | 202° |
| 2026-05-07 14:44 | 40.96122 | 2.63244 | 21330 ft | 367 kts | 217° |
| 2026-05-07 14:44 | 40.94287 | 2.60882 | 21976 ft | 369 kts | 232° |
| 2026-05-07 14:45 | 40.92987 | 2.57946 | 22615 ft | 373 kts | 246° |
| 2026-05-07 14:45 | 40.92174 | 2.54671 | 23264 ft | 376 kts | 251° |
| 2026-05-07 14:45 | 40.91405 | 2.51348 | 23832 ft | 378 kts | 250° |
| 2026-05-07 14:45 | 40.90628 | 2.48015 | 24362 ft | 380 kts | 250° |
| 2026-05-07 14:46 | 40.89844 | 2.44668 | 24887 ft | 381 kts | 250° |
| 2026-05-07 14:46 | 40.89065 | 2.41354 | 25405 ft | 382 kts | 249° |
| 2026-05-07 14:46 | 40.88275 | 2.37996 | 25940 ft | 383 kts | 249° |
| 2026-05-07 14:46 | 40.87480 | 2.34624 | 26435 ft | 384 kts | 249° |
| 2026-05-07 14:47 | 40.86683 | 2.31240 | 26936 ft | 385 kts | 249° |
| 2026-05-07 14:47 | 40.85889 | 2.27861 | 27425 ft | 386 kts | 249° |
| 2026-05-07 14:47 | 40.85092 | 2.24471 | 27911 ft | 387 kts | 248° |
| 2026-05-07 14:47 | 40.84298 | 2.21108 | 28397 ft | 388 kts | 248° |
| 2026-05-07 14:48 | 40.83492 | 2.17703 | 28848 ft | 389 kts | 248° |
| 2026-05-07 14:48 | 40.82683 | 2.14295 | 28957 ft | 382 kts | 248° |
| 2026-05-07 14:48 | 40.81139 | 2.07750 | 28972 ft | 368 kts | 248° |
| 2026-05-07 14:49 | 40.79613 | 2.01349 | 28976 ft | 367 kts | 248° |
| 2026-05-07 14:49 | 40.78071 | 1.94915 | 28965 ft | 367 kts | 248° |
| 2026-05-07 14:50 | 40.76523 | 1.88481 | 28969 ft | 367 kts | 248° |
| 2026-05-07 14:50 | 40.74989 | 1.82090 | 28974 ft | 368 kts | 248° |
| 2026-05-07 14:51 | 40.73444 | 1.75654 | 28974 ft | 368 kts | 248° |
| 2026-05-07 14:51 | 40.71894 | 1.69217 | 28978 ft | 368 kts | 247° |
| 2026-05-07 14:52 | 40.70332 | 1.62779 | 28977 ft | 368 kts | 247° |
| 2026-05-07 14:52 | 40.68774 | 1.56381 | 28980 ft | 368 kts | 247° |
| 2026-05-07 14:53 | 40.67208 | 1.49957 | 28979 ft | 368 kts | 247° |
| 2026-05-07 14:53 | 40.65904 | 1.44619 | 28980 ft | 368 kts | 247° |
| 2026-05-07 14:54 | 40.64082 | 1.37152 | 28981 ft | 368 kts | 247° |
| 2026-05-07 14:54 | 40.62772 | 1.31814 | 28979 ft | 368 kts | 247° |
| 2026-05-07 14:55 | 40.61193 | 1.25401 | 28984 ft | 368 kts | 247° |
| 2026-05-07 14:55 | 40.59611 | 1.18992 | 28981 ft | 368 kts | 247° |
| 2026-05-07 14:56 | 40.58032 | 1.12610 | 28970 ft | 368 kts | 247° |
| 2026-05-07 14:56 | 40.56437 | 1.06189 | 28967 ft | 369 kts | 247° |
| 2026-05-07 14:57 | 40.54465 | 1.00016 | 28954 ft | 363 kts | 234° |
| 2026-05-07 14:57 | 40.51234 | 0.94966 | 28947 ft | 361 kts | 225° |
| 2026-05-07 14:58 | 40.47851 | 0.90137 | 28949 ft | 362 kts | 225° |
| 2026-05-07 14:58 | 40.44432 | 0.85256 | 28946 ft | 363 kts | 225° |
| 2026-05-07 14:59 | 40.41005 | 0.80376 | 28948 ft | 363 kts | 225° |
| 2026-05-07 14:59 | 40.37572 | 0.75496 | 28949 ft | 364 kts | 225° |
| 2026-05-07 15:00 | 40.34149 | 0.70644 | 28939 ft | 364 kts | 225° |
| 2026-05-07 15:00 | 40.30707 | 0.65761 | 28942 ft | 364 kts | 225° |
| 2026-05-07 15:01 | 40.27250 | 0.60869 | 28945 ft | 365 kts | 225° |
| 2026-05-07 15:01 | 40.23806 | 0.56019 | 28950 ft | 366 kts | 225° |
| 2026-05-07 15:02 | 40.20331 | 0.51136 | 28950 ft | 366 kts | 225° |
| 2026-05-07 15:02 | 40.16872 | 0.46267 | 28959 ft | 367 kts | 224° |
| 2026-05-07 15:03 | 40.13386 | 0.41365 | 28960 ft | 367 kts | 224° |
| 2026-05-07 15:03 | 40.09921 | 0.36500 | 28963 ft | 368 kts | 224° |
| 2026-05-07 15:04 | 40.06430 | 0.31622 | 28966 ft | 368 kts | 224° |
| 2026-05-07 15:04 | 40.02927 | 0.26735 | 28964 ft | 368 kts | 224° |
| 2026-05-07 15:05 | 39.99422 | 0.21847 | 28964 ft | 368 kts | 224° |
| 2026-05-07 15:05 | 39.95921 | 0.16957 | 28967 ft | 369 kts | 224° |
| 2026-05-07 15:06 | 39.92424 | 0.12081 | 28971 ft | 370 kts | 224° |
| 2026-05-07 15:06 | 39.88905 | 0.07185 | 28971 ft | 370 kts | 224° |
| 2026-05-07 15:07 | 39.85403 | 0.02332 | 28967 ft | 370 kts | 224° |
| 2026-05-07 15:07 | 39.81862 | -0.02567 | 28954 ft | 370 kts | 224° |
| 2026-05-07 15:08 | 39.80123 | -0.04975 | 28690 ft | 368 kts | 224° |
| 2026-05-07 15:08 | 39.78346 | -0.07432 | 28407 ft | 367 kts | 224° |
| 2026-05-07 15:08 | 39.76617 | -0.09821 | 28141 ft | 366 kts | 224° |
| 2026-05-07 15:08 | 39.74867 | -0.12235 | 27870 ft | 366 kts | 224° |
| 2026-05-07 15:09 | 39.73124 | -0.14639 | 27600 ft | 365 kts | 224° |
| 2026-05-07 15:09 | 39.71377 | -0.17043 | 27337 ft | 365 kts | 224° |
| 2026-05-07 15:09 | 39.69669 | -0.19392 | 27085 ft | 365 kts | 224° |
| 2026-05-07 15:09 | 39.67927 | -0.21792 | 26821 ft | 364 kts | 224° |
| 2026-05-07 15:10 | 39.66207 | -0.24164 | 26562 ft | 364 kts | 224° |
| 2026-05-07 15:10 | 39.64469 | -0.26557 | 26309 ft | 364 kts | 225° |
| 2026-05-07 15:10 | 39.62724 | -0.28956 | 26052 ft | 364 kts | 225° |
| 2026-05-07 15:10 | 39.60985 | -0.31338 | 25797 ft | 364 kts | 225° |
| 2026-05-07 15:11 | 39.59239 | -0.33724 | 25550 ft | 363 kts | 225° |
| 2026-05-07 15:11 | 39.57516 | -0.36078 | 25318 ft | 363 kts | 225° |
| 2026-05-07 15:11 | 39.55775 | -0.38456 | 25066 ft | 363 kts | 225° |
| 2026-05-07 15:11 | 39.54036 | -0.40830 | 24823 ft | 363 kts | 225° |
| 2026-05-07 15:12 | 39.52297 | -0.43207 | 24585 ft | 363 kts | 225° |
| 2026-05-07 15:12 | 39.50504 | -0.45497 | 24349 ft | 362 kts | 219° |
| 2026-05-07 15:12 | 39.48477 | -0.47432 | 24111 ft | 361 kts | 211° |
| 2026-05-07 15:12 | 39.46253 | -0.48937 | 23880 ft | 360 kts | 203° |
| 2026-05-07 15:13 | 39.43915 | -0.49982 | 23649 ft | 360 kts | 196° |
| 2026-05-07 15:13 | 39.41466 | -0.50850 | 23394 ft | 360 kts | 196° |
| 2026-05-07 15:13 | 39.39080 | -0.51698 | 23118 ft | 359 kts | 196° |
| 2026-05-07 15:13 | 39.36671 | -0.52558 | 22848 ft | 358 kts | 196° |
| 2026-05-07 15:14 | 39.34270 | -0.53413 | 22578 ft | 357 kts | 196° |
| 2026-05-07 15:14 | 39.31876 | -0.54265 | 22306 ft | 355 kts | 196° |
| 2026-05-07 15:14 | 39.29490 | -0.55112 | 22035 ft | 354 kts | 196° |
| 2026-05-07 15:14 | 39.27114 | -0.55952 | 21789 ft | 353 kts | 196° |
| 2026-05-07 15:15 | 39.24745 | -0.56786 | 21522 ft | 352 kts | 196° |
| 2026-05-07 15:15 | 39.22416 | -0.57608 | 21262 ft | 350 kts | 196° |
| 2026-05-07 15:15 | 39.20066 | -0.58443 | 21007 ft | 349 kts | 196° |
| 2026-05-07 15:15 | 39.17726 | -0.59277 | 20753 ft | 348 kts | 196° |
| 2026-05-07 15:16 | 39.15399 | -0.60106 | 20500 ft | 347 kts | 196° |
| 2026-05-07 15:16 | 39.13072 | -0.60937 | 20246 ft | 346 kts | 196° |
| 2026-05-07 15:16 | 39.10753 | -0.61760 | 19999 ft | 344 kts | 196° |
| 2026-05-07 15:16 | 39.08471 | -0.62566 | 19751 ft | 343 kts | 195° |
| 2026-05-07 15:17 | 39.06169 | -0.63380 | 19499 ft | 342 kts | 196° |
| 2026-05-07 15:17 | 39.03873 | -0.64193 | 19249 ft | 341 kts | 196° |
| 2026-05-07 15:17 | 39.01581 | -0.65003 | 19003 ft | 340 kts | 196° |
| 2026-05-07 15:17 | 38.99306 | -0.65807 | 18760 ft | 339 kts | 196° |
| 2026-05-07 15:18 | 38.97028 | -0.66610 | 18524 ft | 338 kts | 195° |
| 2026-05-07 15:18 | 38.94757 | -0.67411 | 18283 ft | 337 kts | 195° |
| 2026-05-07 15:18 | 38.92491 | -0.68210 | 18021 ft | 336 kts | 195° |
| 2026-05-07 15:18 | 38.90274 | -0.68988 | 17681 ft | 332 kts | 195° |
| 2026-05-07 15:19 | 38.88055 | -0.69764 | 17224 ft | 328 kts | 195° |
| 2026-05-07 15:19 | 38.85848 | -0.70537 | 16769 ft | 327 kts | 195° |
| 2026-05-07 15:19 | 38.83663 | -0.71301 | 16306 ft | 325 kts | 195° |
| 2026-05-07 15:19 | 38.81485 | -0.72063 | 15852 ft | 323 kts | 195° |
| 2026-05-07 15:20 | 38.79320 | -0.72820 | 15408 ft | 321 kts | 195° |
| 2026-05-07 15:20 | 38.77193 | -0.73565 | 14957 ft | 320 kts | 195° |
| 2026-05-07 15:20 | 38.75048 | -0.74317 | 14507 ft | 319 kts | 196° |
| 2026-05-07 15:20 | 38.72905 | -0.75070 | 14066 ft | 318 kts | 195° |
| 2026-05-07 15:21 | 38.70773 | -0.75818 | 13605 ft | 318 kts | 195° |
| 2026-05-07 15:21 | 38.68626 | -0.76567 | 13124 ft | 320 kts | 195° |
| 2026-05-07 15:21 | 38.66471 | -0.77318 | 12680 ft | 320 kts | 195° |
| 2026-05-07 15:21 | 38.64326 | -0.78064 | 12238 ft | 318 kts | 195° |
| 2026-05-07 15:22 | 38.62199 | -0.78804 | 11860 ft | 313 kts | 195° |
| 2026-05-07 15:22 | 38.60169 | -0.79513 | 11738 ft | 301 kts | 195° |
| 2026-05-07 15:22 | 38.58185 | -0.80207 | 11604 ft | 290 kts | 195° |
| 2026-05-07 15:22 | 38.56333 | -0.80851 | 11482 ft | 280 kts | 195° |
| 2026-05-07 15:23 | 38.54525 | -0.81652 | 11355 ft | 270 kts | 208° |
| 2026-05-07 15:23 | 38.53075 | -0.83102 | 11230 ft | 262 kts | 228° |
| 2026-05-07 15:23 | 38.51921 | -0.84877 | 10992 ft | 258 kts | 228° |
| 2026-05-07 15:23 | 38.50717 | -0.86555 | 10515 ft | 255 kts | 224° |
| 2026-05-07 15:24 | 38.49460 | -0.88114 | 10014 ft | 253 kts | 221° |
| 2026-05-07 15:24 | 38.48140 | -0.89583 | 9605 ft | 250 kts | 218° |
| 2026-05-07 15:24 | 38.46774 | -0.90953 | 9220 ft | 251 kts | 216° |
| 2026-05-07 15:24 | 38.45343 | -0.92246 | 8850 ft | 253 kts | 212° |
| 2026-05-07 15:25 | 38.43851 | -0.93446 | 8534 ft | 251 kts | 209° |
| 2026-05-07 15:25 | 38.42344 | -0.94526 | 8132 ft | 246 kts | 206° |
| 2026-05-07 15:25 | 38.40810 | -0.95486 | 7767 ft | 245 kts | 203° |
| 2026-05-07 15:25 | 38.39239 | -0.96338 | 7414 ft | 244 kts | 200° |
| 2026-05-07 15:26 | 38.37685 | -0.97092 | 7097 ft | 239 kts | 199° |
| 2026-05-07 15:26 | 38.36107 | -0.97711 | 6820 ft | 235 kts | 182° |
| 2026-05-07 15:26 | 38.34555 | -0.97221 | 6408 ft | 236 kts | 143° |
| 2026-05-07 15:26 | 38.33632 | -0.95577 | 6040 ft | 227 kts | 104° |
| 2026-05-07 15:27 | 38.33379 | -0.93640 | 5734 ft | 216 kts | 97° |
| 2026-05-07 15:27 | 38.33160 | -0.91778 | 5456 ft | 209 kts | 98° |
| 2026-05-07 15:27 | 38.32923 | -0.89980 | 5203 ft | 203 kts | 99° |
| 2026-05-07 15:27 | 38.32686 | -0.88236 | 4926 ft | 197 kts | 99° |
| 2026-05-07 15:28 | 38.32455 | -0.86539 | 4647 ft | 190 kts | 99° |
| 2026-05-07 15:28 | 38.32236 | -0.84940 | 4392 ft | 180 kts | 99° |
| 2026-05-07 15:28 | 38.32028 | -0.83416 | 4175 ft | 170 kts | 99° |
| 2026-05-07 15:28 | 38.31834 | -0.82003 | 3962 ft | 151 kts | 98° |
| 2026-05-07 15:29 | 38.31660 | -0.80739 | 3765 ft | 139 kts | 98° |
| 2026-05-07 15:29 | 38.31498 | -0.79550 | 3580 ft | 135 kts | 98° |
| 2026-05-07 15:29 | 38.31340 | -0.78400 | 3408 ft | 133 kts | 98° |
| 2026-05-07 15:29 | 38.31181 | -0.77245 | 3232 ft | 132 kts | 98° |
| 2026-05-07 15:30 | 38.31024 | -0.76101 | 3050 ft | 129 kts | 98° |
| 2026-05-07 15:30 | 38.30869 | -0.74972 | 2875 ft | 130 kts | 98° |
| 2026-05-07 15:30 | 38.30712 | -0.73831 | 2698 ft | 131 kts | 98° |
| 2026-05-07 15:30 | 38.30556 | -0.72698 | 2521 ft | 129 kts | 98° |
| 2026-05-07 15:31 | 38.30402 | -0.71578 | 2361 ft | 130 kts | 99° |
| 2026-05-07 15:31 | 38.30246 | -0.70450 | 2186 ft | 129 kts | 98° |
| 2026-05-07 15:31 | 38.30091 | -0.69330 | 2018 ft | 128 kts | 98° |
| 2026-05-07 15:31 | 38.29937 | -0.68210 | 1850 ft | 128 kts | 98° |
| 2026-05-07 15:32 | 38.29783 | -0.67102 | 1670 ft | 127 kts | 98° |
| 2026-05-07 15:32 | 38.29630 | -0.65993 | 1494 ft | 127 kts | 98° |
| 2026-05-07 15:32 | 38.29479 | -0.64905 | 1330 ft | 126 kts | 99° |
| 2026-05-07 15:32 | 38.29327 | -0.63802 | 1160 ft | 126 kts | 100° |
| 2026-05-07 15:33 | 38.29173 | -0.62696 | 989 ft | 127 kts | 99° |
| 2026-05-07 15:33 | 38.29019 | -0.61588 | 825 ft | 126 kts | 99° |
| 2026-05-07 15:33 | 38.28868 | -0.60494 | 648 ft | 125 kts | 99° |
| 2026-05-07 15:33 | 38.28718 | -0.59403 | 502 ft | 126 kts | 99° |
| 2026-05-07 15:34 | 38.28564 | -0.58313 | 316 ft | 124 kts | 99° |
| 2026-05-07 15:34 | 38.28413 | -0.57233 | 155 ft | 121 kts | 99° |
| 2026-05-07 15:34 | 38.28287 | -0.56324 | 118 ft | 84 kts | 100° |
| 2026-05-07 15:34 | 38.28205 | -0.55732 | 98 ft | 55 kts | 100° |
| 2026-05-07 15:35 | 38.28149 | -0.55334 | 84 ft | 40 kts | 100° |
| 2026-05-07 15:35 | 38.28122 | -0.55036 | 74 ft | 30 kts | 84° |
| 2026-05-07 15:35 | 38.28166 | -0.54814 | 66 ft | 22 kts | 70° |
| 2026-05-07 15:35 | 38.28221 | -0.54716 | 62 ft | 14 kts | 359° |
| 2026-05-07 15:36 | 38.28255 | -0.54814 | 61 ft | 8 kts | 279° |
| 2026-05-07 15:36 | 38.28269 | -0.54917 | 62 ft | 16 kts | 279° |
| 2026-05-07 15:36 | 38.28289 | -0.55058 | 76 ft | 18 kts | 279° |
| 2026-05-07 15:36 | 38.28314 | -0.55186 | 84 ft | 11 kts | 305° |
| 2026-05-07 15:37 | 38.28371 | -0.55182 | 89 ft | 10 kts | 44° |
| 2026-05-07 15:37 | 38.28424 | -0.55166 | 90 ft | 8 kts | 330° |
| 2026-05-07 15:37 | 38.28445 | -0.55226 | 93 ft | 7 kts | 287° |
| 2026-05-07 15:37 | 38.28486 | -0.55240 | 93 ft | 8 kts | 10° |
| 2026-05-07 15:38 | 38.28512 | -0.55234 | 96 ft | 2 kts | 10° |
| 2026-05-07 15:38 | 38.28523 | -0.55232 | 96 ft | 1 kts | 9° |